sensor_id;sensor_type;location;lat;lon;timestamp;P1;durP1;ratioP1;P2;durP2;ratioP2
15818;SDS011;8010;53.986;12.106;2022-08-19T00:00:12;22.53;;;19.80;;
15818;SDS011;8010;53.986;12.106;2022-08-19T00:02:39;20.77;;;18.57;;
15818;SDS011;8010;53.986;12.106;2022-08-19T00:05:06;23.33;;;19.53;;
15818;SDS011;8010;53.986;12.106;2022-08-19T00:07:32;21.70;;;19.33;;
15818;SDS011;8010;53.986;12.106;2022-08-19T00:09:58;21.13;;;18.77;;
15818;SDS011;8010;53.986;12.106;2022-08-19T00:12:23;22.87;;;19.13;;
15818;SDS011;8010;53.986;12.106;2022-08-19T00:14:49;23.90;;;19.20;;
15818;SDS011;8010;53.986;12.106;2022-08-19T00:17:15;21.60;;;19.43;;
15818;SDS011;8010;53.986;12.106;2022-08-19T00:19:40;25.73;;;22.37;;
15818;SDS011;8010;53.986;12.106;2022-08-19T00:22:06;24.93;;;21.77;;
15818;SDS011;8010;53.986;12.106;2022-08-19T00:24:34;26.43;;;21.70;;
15818;SDS011;8010;53.986;12.106;2022-08-19T00:27:00;23.17;;;20.63;;
15818;SDS011;8010;53.986;12.106;2022-08-19T00:29:27;23.97;;;21.23;;
15818;SDS011;8010;53.986;12.106;2022-08-19T00:31:53;23.73;;;21.07;;
15818;SDS011;8010;53.986;12.106;2022-08-19T00:34:21;23.27;;;20.40;;
15818;SDS011;8010;53.986;12.106;2022-08-19T00:36:46;25.10;;;19.77;;
15818;SDS011;8010;53.986;12.106;2022-08-19T00:39:13;20.80;;;18.57;;
15818;SDS011;8010;53.986;12.106;2022-08-19T00:41:40;25.90;;;20.53;;
15818;SDS011;8010;53.986;12.106;2022-08-19T00:46:34;19.93;;;17.83;;
15818;SDS011;8010;53.986;12.106;2022-08-19T00:49:02;22.67;;;19.07;;
15818;SDS011;8010;53.986;12.106;2022-08-19T00:51:39;21.33;;;18.20;;
15818;SDS011;8010;53.986;12.106;2022-08-19T00:54:07;22.73;;;18.97;;
15818;SDS011;8010;53.986;12.106;2022-08-19T00:56:34;22.07;;;19.00;;
15818;SDS011;8010;53.986;12.106;2022-08-19T00:59:00;22.17;;;19.80;;
15818;SDS011;8010;53.986;12.106;2022-08-19T01:01:27;20.80;;;17.83;;
15818;SDS011;8010;53.986;12.106;2022-08-19T01:03:53;22.47;;;18.67;;
15818;SDS011;8010;53.986;12.106;2022-08-19T01:06:18;19.17;;;17.10;;
15818;SDS011;8010;53.986;12.106;2022-08-19T01:08:44;20.17;;;17.97;;
15818;SDS011;8010;53.986;12.106;2022-08-19T01:11:10;20.70;;;16.80;;
15818;SDS011;8010;53.986;12.106;2022-08-19T01:13:36;21.93;;;19.00;;
15818;SDS011;8010;53.986;12.106;2022-08-19T01:16:03;20.50;;;18.00;;
15818;SDS011;8010;53.986;12.106;2022-08-19T01:18:31;21.60;;;19.30;;
15818;SDS011;8010;53.986;12.106;2022-08-19T01:21:02;21.37;;;18.07;;
15818;SDS011;8010;53.986;12.106;2022-08-19T01:23:32;23.20;;;18.53;;
15818;SDS011;8010;53.986;12.106;2022-08-19T01:26:18;19.37;;;17.37;;
15818;SDS011;8010;53.986;12.106;2022-08-19T01:28:47;20.80;;;17.93;;
15818;SDS011;8010;53.986;12.106;2022-08-19T01:31:17;20.67;;;18.47;;
15818;SDS011;8010;53.986;12.106;2022-08-19T01:33:45;23.60;;;19.17;;
15818;SDS011;8010;53.986;12.106;2022-08-19T01:36:13;19.60;;;17.40;;
15818;SDS011;8010;53.986;12.106;2022-08-19T01:38:41;21.10;;;18.10;;
15818;SDS011;8010;53.986;12.106;2022-08-19T01:41:08;23.77;;;17.93;;
15818;SDS011;8010;53.986;12.106;2022-08-19T01:43:35;21.83;;;18.67;;
15818;SDS011;8010;53.986;12.106;2022-08-19T01:46:02;28.77;;;20.23;;
15818;SDS011;8010;53.986;12.106;2022-08-19T01:48:32;24.23;;;21.20;;
15818;SDS011;8010;53.986;12.106;2022-08-19T01:50:59;25.30;;;20.77;;
15818;SDS011;8010;53.986;12.106;2022-08-19T01:53:24;22.87;;;20.20;;
15818;SDS011;8010;53.986;12.106;2022-08-19T01:55:50;26.10;;;21.50;;
15818;SDS011;8010;53.986;12.106;2022-08-19T01:58:18;24.37;;;21.30;;
15818;SDS011;8010;53.986;12.106;2022-08-19T02:00:45;27.20;;;20.87;;
15818;SDS011;8010;53.986;12.106;2022-08-19T02:03:11;24.00;;;21.27;;
15818;SDS011;8010;53.986;12.106;2022-08-19T02:05:37;22.60;;;20.20;;
15818;SDS011;8010;53.986;12.106;2022-08-19T02:08:04;24.10;;;21.07;;
15818;SDS011;8010;53.986;12.106;2022-08-19T02:10:30;24.53;;;19.80;;
15818;SDS011;8010;53.986;12.106;2022-08-19T02:12:56;24.03;;;20.53;;
15818;SDS011;8010;53.986;12.106;2022-08-19T02:15:22;23.63;;;20.77;;
15818;SDS011;8010;53.986;12.106;2022-08-19T02:17:48;23.33;;;20.80;;
15818;SDS011;8010;53.986;12.106;2022-08-19T02:20:14;25.80;;;22.03;;
15818;SDS011;8010;53.986;12.106;2022-08-19T02:22:41;26.73;;;22.00;;
15818;SDS011;8010;53.986;12.106;2022-08-19T02:25:08;26.20;;;21.60;;
15818;SDS011;8010;53.986;12.106;2022-08-19T02:27:37;25.20;;;21.87;;
15818;SDS011;8010;53.986;12.106;2022-08-19T02:30:09;26.10;;;21.67;;
15818;SDS011;8010;53.986;12.106;2022-08-19T02:32:37;27.33;;;22.93;;
15818;SDS011;8010;53.986;12.106;2022-08-19T02:35:04;28.53;;;21.80;;
15818;SDS011;8010;53.986;12.106;2022-08-19T02:37:30;28.60;;;23.17;;
15818;SDS011;8010;53.986;12.106;2022-08-19T02:40:14;28.27;;;23.73;;
15818;SDS011;8010;53.986;12.106;2022-08-19T02:42:40;27.63;;;22.87;;
15818;SDS011;8010;53.986;12.106;2022-08-19T02:45:06;30.37;;;24.07;;
15818;SDS011;8010;53.986;12.106;2022-08-19T02:47:32;29.90;;;23.57;;
15818;SDS011;8010;53.986;12.106;2022-08-19T02:50:00;29.63;;;24.07;;
15818;SDS011;8010;53.986;12.106;2022-08-19T02:52:26;28.30;;;24.00;;
15818;SDS011;8010;53.986;12.106;2022-08-19T02:54:53;30.10;;;23.50;;
15818;SDS011;8010;53.986;12.106;2022-08-19T02:57:18;28.87;;;23.17;;
15818;SDS011;8010;53.986;12.106;2022-08-19T02:59:44;31.30;;;23.53;;
15818;SDS011;8010;53.986;12.106;2022-08-19T03:02:09;29.77;;;23.80;;
15818;SDS011;8010;53.986;12.106;2022-08-19T03:04:35;29.57;;;23.83;;
15818;SDS011;8010;53.986;12.106;2022-08-19T03:07:00;26.77;;;22.90;;
15818;SDS011;8010;53.986;12.106;2022-08-19T03:09:26;31.97;;;24.50;;
15818;SDS011;8010;53.986;12.106;2022-08-19T03:11:51;30.67;;;24.13;;
15818;SDS011;8010;53.986;12.106;2022-08-19T03:14:17;33.10;;;25.57;;
15818;SDS011;8010;53.986;12.106;2022-08-19T03:16:49;30.10;;;25.20;;
15818;SDS011;8010;53.986;12.106;2022-08-19T03:19:17;35.90;;;25.63;;
15818;SDS011;8010;53.986;12.106;2022-08-19T03:21:44;32.63;;;24.17;;
15818;SDS011;8010;53.986;12.106;2022-08-19T03:24:11;31.27;;;24.20;;
15818;SDS011;8010;53.986;12.106;2022-08-19T03:26:40;33.27;;;25.67;;
15818;SDS011;8010;53.986;12.106;2022-08-19T03:29:07;29.87;;;24.27;;
15818;SDS011;8010;53.986;12.106;2022-08-19T03:31:35;27.73;;;23.70;;
15818;SDS011;8010;53.986;12.106;2022-08-19T03:34:01;33.33;;;24.33;;
15818;SDS011;8010;53.986;12.106;2022-08-19T03:36:27;30.93;;;23.50;;
15818;SDS011;8010;53.986;12.106;2022-08-19T03:38:54;30.97;;;22.63;;
15818;SDS011;8010;53.986;12.106;2022-08-19T03:41:27;28.27;;;22.70;;
15818;SDS011;8010;53.986;12.106;2022-08-19T03:43:54;27.43;;;22.63;;
15818;SDS011;8010;53.986;12.106;2022-08-19T03:46:23;30.10;;;21.83;;
15818;SDS011;8010;53.986;12.106;2022-08-19T03:48:53;28.47;;;22.80;;
15818;SDS011;8010;53.986;12.106;2022-08-19T03:51:22;30.43;;;23.67;;
15818;SDS011;8010;53.986;12.106;2022-08-19T03:53:50;32.63;;;23.43;;
15818;SDS011;8010;53.986;12.106;2022-08-19T03:56:16;33.80;;;24.53;;
15818;SDS011;8010;53.986;12.106;2022-08-19T03:58:42;29.87;;;23.27;;
15818;SDS011;8010;53.986;12.106;2022-08-19T04:01:12;28.20;;;22.60;;
15818;SDS011;8010;53.986;12.106;2022-08-19T04:03:40;30.93;;;23.03;;
15818;SDS011;8010;53.986;12.106;2022-08-19T04:06:12;32.67;;;23.50;;
15818;SDS011;8010;53.986;12.106;2022-08-19T04:08:40;32.03;;;24.90;;
15818;SDS011;8010;53.986;12.106;2022-08-19T04:11:08;31.67;;;23.60;;
15818;SDS011;8010;53.986;12.106;2022-08-19T04:13:34;34.73;;;23.70;;
15818;SDS011;8010;53.986;12.106;2022-08-19T04:16:00;32.97;;;23.30;;
15818;SDS011;8010;53.986;12.106;2022-08-19T04:18:26;36.53;;;24.87;;
15818;SDS011;8010;53.986;12.106;2022-08-19T04:20:54;37.23;;;24.37;;
15818;SDS011;8010;53.986;12.106;2022-08-19T04:23:20;35.50;;;23.90;;
15818;SDS011;8010;53.986;12.106;2022-08-19T04:25:45;36.33;;;24.97;;
15818;SDS011;8010;53.986;12.106;2022-08-19T04:28:11;36.10;;;23.60;;
15818;SDS011;8010;53.986;12.106;2022-08-19T04:30:39;36.57;;;25.43;;
15818;SDS011;8010;53.986;12.106;2022-08-19T04:33:10;34.37;;;23.30;;
15818;SDS011;8010;53.986;12.106;2022-08-19T04:35:37;43.33;;;26.60;;
15818;SDS011;8010;53.986;12.106;2022-08-19T04:38:07;41.23;;;24.87;;
15818;SDS011;8010;53.986;12.106;2022-08-19T04:40:34;40.63;;;25.23;;
15818;SDS011;8010;53.986;12.106;2022-08-19T04:43:24;41.23;;;25.67;;
15818;SDS011;8010;53.986;12.106;2022-08-19T04:45:49;44.87;;;25.80;;
15818;SDS011;8010;53.986;12.106;2022-08-19T04:48:16;39.67;;;25.77;;
15818;SDS011;8010;53.986;12.106;2022-08-19T04:50:42;41.37;;;25.70;;
15818;SDS011;8010;53.986;12.106;2022-08-19T04:53:09;42.47;;;26.60;;
15818;SDS011;8010;53.986;12.106;2022-08-19T04:55:38;43.17;;;26.63;;
15818;SDS011;8010;53.986;12.106;2022-08-19T04:58:05;40.67;;;27.10;;
15818;SDS011;8010;53.986;12.106;2022-08-19T05:00:31;41.33;;;28.13;;
15818;SDS011;8010;53.986;12.106;2022-08-19T05:02:57;47.30;;;28.10;;
15818;SDS011;8010;53.986;12.106;2022-08-19T05:05:22;42.43;;;26.73;;
15818;SDS011;8010;53.986;12.106;2022-08-19T05:07:48;50.03;;;27.97;;
15818;SDS011;8010;53.986;12.106;2022-08-19T05:10:13;43.93;;;28.10;;
15818;SDS011;8010;53.986;12.106;2022-08-19T05:12:39;42.50;;;26.37;;
15818;SDS011;8010;53.986;12.106;2022-08-19T05:15:05;41.63;;;27.37;;
15818;SDS011;8010;53.986;12.106;2022-08-19T05:17:33;47.37;;;27.57;;
15818;SDS011;8010;53.986;12.106;2022-08-19T05:19:59;47.00;;;26.70;;
15818;SDS011;8010;53.986;12.106;2022-08-19T05:22:46;50.57;;;28.90;;
15818;SDS011;8010;53.986;12.106;2022-08-19T05:25:14;45.87;;;28.30;;
15818;SDS011;8010;53.986;12.106;2022-08-19T05:27:43;45.93;;;28.53;;
15818;SDS011;8010;53.986;12.106;2022-08-19T05:30:10;49.73;;;28.23;;
15818;SDS011;8010;53.986;12.106;2022-08-19T05:32:36;52.33;;;30.07;;
15818;SDS011;8010;53.986;12.106;2022-08-19T05:35:02;52.53;;;29.17;;
15818;SDS011;8010;53.986;12.106;2022-08-19T05:37:28;50.53;;;28.70;;
15818;SDS011;8010;53.986;12.106;2022-08-19T05:39:54;48.17;;;28.97;;
15818;SDS011;8010;53.986;12.106;2022-08-19T05:42:20;47.17;;;27.87;;
15818;SDS011;8010;53.986;12.106;2022-08-19T05:44:47;49.93;;;27.77;;
15818;SDS011;8010;53.986;12.106;2022-08-19T05:47:14;50.93;;;29.53;;
15818;SDS011;8010;53.986;12.106;2022-08-19T05:49:40;54.00;;;29.10;;
15818;SDS011;8010;53.986;12.106;2022-08-19T05:52:08;52.00;;;29.10;;
15818;SDS011;8010;53.986;12.106;2022-08-19T05:54:36;44.37;;;27.70;;
15818;SDS011;8010;53.986;12.106;2022-08-19T05:57:05;50.20;;;28.70;;
15818;SDS011;8010;53.986;12.106;2022-08-19T05:59:30;46.40;;;28.00;;
15818;SDS011;8010;53.986;12.106;2022-08-19T06:01:56;48.50;;;28.00;;
15818;SDS011;8010;53.986;12.106;2022-08-19T06:04:22;44.87;;;28.37;;
15818;SDS011;8010;53.986;12.106;2022-08-19T06:06:49;48.20;;;28.67;;
15818;SDS011;8010;53.986;12.106;2022-08-19T06:09:19;47.00;;;28.67;;
15818;SDS011;8010;53.986;12.106;2022-08-19T06:11:47;51.40;;;29.13;;
15818;SDS011;8010;53.986;12.106;2022-08-19T06:14:24;50.23;;;27.00;;
15818;SDS011;8010;53.986;12.106;2022-08-19T06:16:52;46.67;;;28.27;;
15818;SDS011;8010;53.986;12.106;2022-08-19T06:19:18;48.33;;;27.63;;
15818;SDS011;8010;53.986;12.106;2022-08-19T06:21:46;47.93;;;28.37;;
15818;SDS011;8010;53.986;12.106;2022-08-19T06:24:14;51.50;;;29.50;;
15818;SDS011;8010;53.986;12.106;2022-08-19T06:26:42;43.73;;;26.50;;
15818;SDS011;8010;53.986;12.106;2022-08-19T06:29:11;45.43;;;27.20;;
15818;SDS011;8010;53.986;12.106;2022-08-19T06:31:40;49.60;;;28.03;;
15818;SDS011;8010;53.986;12.106;2022-08-19T06:34:08;49.80;;;28.83;;
15818;SDS011;8010;53.986;12.106;2022-08-19T06:36:36;53.77;;;28.83;;
15818;SDS011;8010;53.986;12.106;2022-08-19T06:39:26;56.03;;;28.83;;
15818;SDS011;8010;53.986;12.106;2022-08-19T06:41:56;48.07;;;28.23;;
15818;SDS011;8010;53.986;12.106;2022-08-19T06:44:24;47.50;;;26.73;;
15818;SDS011;8010;53.986;12.106;2022-08-19T06:46:55;50.60;;;27.50;;
15818;SDS011;8010;53.986;12.106;2022-08-19T06:49:22;46.50;;;27.83;;
15818;SDS011;8010;53.986;12.106;2022-08-19T06:51:48;50.40;;;27.60;;
15818;SDS011;8010;53.986;12.106;2022-08-19T06:54:17;48.70;;;28.10;;
15818;SDS011;8010;53.986;12.106;2022-08-19T06:56:43;50.67;;;27.10;;
15818;SDS011;8010;53.986;12.106;2022-08-19T06:59:11;49.17;;;28.37;;
15818;SDS011;8010;53.986;12.106;2022-08-19T07:01:40;48.53;;;26.53;;
15818;SDS011;8010;53.986;12.106;2022-08-19T07:04:09;48.27;;;27.20;;
15818;SDS011;8010;53.986;12.106;2022-08-19T07:06:35;50.13;;;27.33;;
15818;SDS011;8010;53.986;12.106;2022-08-19T07:09:02;45.33;;;26.27;;
15818;SDS011;8010;53.986;12.106;2022-08-19T07:11:31;56.53;;;27.20;;
15818;SDS011;8010;53.986;12.106;2022-08-19T07:13:57;45.07;;;27.50;;
15818;SDS011;8010;53.986;12.106;2022-08-19T07:16:23;50.87;;;28.73;;
15818;SDS011;8010;53.986;12.106;2022-08-19T07:18:50;49.07;;;28.40;;
15818;SDS011;8010;53.986;12.106;2022-08-19T07:21:18;50.63;;;28.03;;
15818;SDS011;8010;53.986;12.106;2022-08-19T07:23:46;48.40;;;28.13;;
15818;SDS011;8010;53.986;12.106;2022-08-19T07:26:13;46.10;;;26.57;;
15818;SDS011;8010;53.986;12.106;2022-08-19T07:28:39;45.47;;;26.63;;
15818;SDS011;8010;53.986;12.106;2022-08-19T07:31:06;44.60;;;26.70;;
15818;SDS011;8010;53.986;12.106;2022-08-19T07:33:32;47.77;;;27.20;;
15818;SDS011;8010;53.986;12.106;2022-08-19T07:35:59;46.73;;;28.13;;
15818;SDS011;8010;53.986;12.106;2022-08-19T07:38:24;46.90;;;26.23;;
15818;SDS011;8010;53.986;12.106;2022-08-19T07:40:50;40.67;;;25.80;;
15818;SDS011;8010;53.986;12.106;2022-08-19T07:43:16;42.83;;;26.90;;
15818;SDS011;8010;53.986;12.106;2022-08-19T07:45:47;48.23;;;28.07;;
15818;SDS011;8010;53.986;12.106;2022-08-19T07:48:13;46.40;;;26.50;;
15818;SDS011;8010;53.986;12.106;2022-08-19T07:50:39;45.13;;;26.27;;
15818;SDS011;8010;53.986;12.106;2022-08-19T07:53:05;44.47;;;26.43;;
15818;SDS011;8010;53.986;12.106;2022-08-19T07:55:30;43.00;;;26.73;;
15818;SDS011;8010;53.986;12.106;2022-08-19T07:57:56;42.67;;;26.93;;
15818;SDS011;8010;53.986;12.106;2022-08-19T08:00:21;40.30;;;26.40;;
15818;SDS011;8010;53.986;12.106;2022-08-19T08:02:47;48.67;;;27.43;;
15818;SDS011;8010;53.986;12.106;2022-08-19T08:05:13;43.83;;;26.60;;
15818;SDS011;8010;53.986;12.106;2022-08-19T08:07:57;45.27;;;27.10;;
15818;SDS011;8010;53.986;12.106;2022-08-19T08:10:41;43.30;;;26.47;;
15818;SDS011;8010;53.986;12.106;2022-08-19T08:13:07;44.63;;;26.23;;
15818;SDS011;8010;53.986;12.106;2022-08-19T08:15:32;48.00;;;26.70;;
15818;SDS011;8010;53.986;12.106;2022-08-19T08:17:58;48.60;;;27.23;;
15818;SDS011;8010;53.986;12.106;2022-08-19T08:20:24;43.07;;;26.27;;
15818;SDS011;8010;53.986;12.106;2022-08-19T08:22:49;46.73;;;26.87;;
15818;SDS011;8010;53.986;12.106;2022-08-19T08:25:34;41.03;;;26.70;;
15818;SDS011;8010;53.986;12.106;2022-08-19T08:28:01;45.70;;;26.97;;
15818;SDS011;8010;53.986;12.106;2022-08-19T08:30:28;47.87;;;26.83;;
15818;SDS011;8010;53.986;12.106;2022-08-19T08:32:57;43.37;;;25.40;;
15818;SDS011;8010;53.986;12.106;2022-08-19T08:35:23;43.20;;;25.87;;
15818;SDS011;8010;53.986;12.106;2022-08-19T08:37:50;40.93;;;25.83;;
15818;SDS011;8010;53.986;12.106;2022-08-19T08:42:57;42.93;;;25.77;;
15818;SDS011;8010;53.986;12.106;2022-08-19T08:45:44;44.87;;;26.60;;
15818;SDS011;8010;53.986;12.106;2022-08-19T08:48:22;43.43;;;25.80;;
15818;SDS011;8010;53.986;12.106;2022-08-19T08:50:56;43.33;;;27.07;;
15818;SDS011;8010;53.986;12.106;2022-08-19T08:53:23;43.00;;;27.03;;
15818;SDS011;8010;53.986;12.106;2022-08-19T08:55:49;46.90;;;28.33;;
15818;SDS011;8010;53.986;12.106;2022-08-19T08:58:29;45.67;;;26.80;;
15818;SDS011;8010;53.986;12.106;2022-08-19T09:01:22;42.37;;;26.80;;
15818;SDS011;8010;53.986;12.106;2022-08-19T09:03:48;42.53;;;26.23;;
15818;SDS011;8010;53.986;12.106;2022-08-19T09:11:55;40.30;;;26.23;;
15818;SDS011;8010;53.986;12.106;2022-08-19T09:14:35;37.40;;;24.47;;
15818;SDS011;8010;53.986;12.106;2022-08-19T09:17:13;37.77;;;24.73;;
15818;SDS011;8010;53.986;12.106;2022-08-19T09:19:50;37.47;;;24.80;;
15818;SDS011;8010;53.986;12.106;2022-08-19T09:22:21;39.60;;;25.03;;
15818;SDS011;8010;53.986;12.106;2022-08-19T09:24:48;39.20;;;25.30;;
15818;SDS011;8010;53.986;12.106;2022-08-19T09:27:15;38.93;;;25.10;;
15818;SDS011;8010;53.986;12.106;2022-08-19T09:29:40;39.03;;;24.87;;
15818;SDS011;8010;53.986;12.106;2022-08-19T09:32:06;35.50;;;24.23;;
15818;SDS011;8010;53.986;12.106;2022-08-19T09:34:32;35.77;;;25.13;;
15818;SDS011;8010;53.986;12.106;2022-08-19T09:36:57;36.50;;;25.23;;
15818;SDS011;8010;53.986;12.106;2022-08-19T09:39:25;39.83;;;25.10;;
15818;SDS011;8010;53.986;12.106;2022-08-19T09:41:50;39.67;;;25.60;;
15818;SDS011;8010;53.986;12.106;2022-08-19T09:44:16;35.30;;;25.43;;
15818;SDS011;8010;53.986;12.106;2022-08-19T09:46:42;36.20;;;26.23;;
15818;SDS011;8010;53.986;12.106;2022-08-19T09:49:08;33.47;;;24.40;;
15818;SDS011;8010;53.986;12.106;2022-08-19T09:51:33;35.03;;;25.13;;
15818;SDS011;8010;53.986;12.106;2022-08-19T09:54:00;33.13;;;25.53;;
15818;SDS011;8010;53.986;12.106;2022-08-19T09:56:27;36.97;;;26.07;;
15818;SDS011;8010;53.986;12.106;2022-08-19T09:58:55;36.53;;;26.00;;
15818;SDS011;8010;53.986;12.106;2022-08-19T10:01:23;35.53;;;25.10;;
15818;SDS011;8010;53.986;12.106;2022-08-19T10:03:55;31.30;;;24.67;;
15818;SDS011;8010;53.986;12.106;2022-08-19T10:06:23;34.00;;;24.53;;
15818;SDS011;8010;53.986;12.106;2022-08-19T10:08:50;34.13;;;23.93;;
15818;SDS011;8010;53.986;12.106;2022-08-19T10:11:16;32.50;;;23.53;;
15818;SDS011;8010;53.986;12.106;2022-08-19T10:13:43;32.10;;;23.83;;
15818;SDS011;8010;53.986;12.106;2022-08-19T10:16:11;30.93;;;22.53;;
15818;SDS011;8010;53.986;12.106;2022-08-19T10:18:42;29.40;;;22.90;;
15818;SDS011;8010;53.986;12.106;2022-08-19T10:21:13;30.83;;;23.30;;
15818;SDS011;8010;53.986;12.106;2022-08-19T10:23:40;29.70;;;23.20;;
15818;SDS011;8010;53.986;12.106;2022-08-19T10:26:13;31.33;;;22.63;;
15818;SDS011;8010;53.986;12.106;2022-08-19T10:28:40;26.13;;;22.00;;
15818;SDS011;8010;53.986;12.106;2022-08-19T10:31:07;27.77;;;20.90;;
15818;SDS011;8010;53.986;12.106;2022-08-19T10:33:35;28.23;;;21.00;;
15818;SDS011;8010;53.986;12.106;2022-08-19T10:36:06;24.50;;;19.57;;
15818;SDS011;8010;53.986;12.106;2022-08-19T10:38:40;28.90;;;20.90;;
15818;SDS011;8010;53.986;12.106;2022-08-19T10:41:07;30.43;;;21.43;;
15818;SDS011;8010;53.986;12.106;2022-08-19T10:43:34;28.00;;;20.40;;
15818;SDS011;8010;53.986;12.106;2022-08-19T10:46:03;27.03;;;21.53;;
15818;SDS011;8010;53.986;12.106;2022-08-19T10:48:30;30.87;;;22.57;;
15818;SDS011;8010;53.986;12.106;2022-08-19T10:50:57;26.70;;;22.13;;
15818;SDS011;8010;53.986;12.106;2022-08-19T10:53:41;28.67;;;22.47;;
15818;SDS011;8010;53.986;12.106;2022-08-19T10:56:07;29.13;;;23.07;;
15818;SDS011;8010;53.986;12.106;2022-08-19T10:58:51;28.90;;;22.47;;
15818;SDS011;8010;53.986;12.106;2022-08-19T11:01:17;30.40;;;22.83;;
15818;SDS011;8010;53.986;12.106;2022-08-19T11:03:43;31.07;;;23.07;;
15818;SDS011;8010;53.986;12.106;2022-08-19T11:06:10;32.60;;;22.87;;
15818;SDS011;8010;53.986;12.106;2022-08-19T11:08:36;31.53;;;23.47;;
15818;SDS011;8010;53.986;12.106;2022-08-19T11:11:03;32.27;;;23.83;;
15818;SDS011;8010;53.986;12.106;2022-08-19T11:13:31;29.23;;;23.63;;
15818;SDS011;8010;53.986;12.106;2022-08-19T11:16:09;31.13;;;24.40;;
15818;SDS011;8010;53.986;12.106;2022-08-19T11:18:38;29.67;;;24.50;;
15818;SDS011;8010;53.986;12.106;2022-08-19T11:21:18;30.80;;;24.03;;
15818;SDS011;8010;53.986;12.106;2022-08-19T11:23:47;34.13;;;24.93;;
15818;SDS011;8010;53.986;12.106;2022-08-19T11:26:14;30.03;;;24.43;;
15818;SDS011;8010;53.986;12.106;2022-08-19T11:28:40;31.77;;;23.77;;
15818;SDS011;8010;53.986;12.106;2022-08-19T11:31:12;31.43;;;25.03;;
15818;SDS011;8010;53.986;12.106;2022-08-19T11:33:39;33.60;;;24.47;;
15818;SDS011;8010;53.986;12.106;2022-08-19T11:36:05;33.17;;;24.53;;
15818;SDS011;8010;53.986;12.106;2022-08-19T11:38:32;32.03;;;23.93;;
15818;SDS011;8010;53.986;12.106;2022-08-19T11:41:00;31.30;;;24.40;;
15818;SDS011;8010;53.986;12.106;2022-08-19T11:43:27;33.17;;;24.50;;
15818;SDS011;8010;53.986;12.106;2022-08-19T11:45:54;30.60;;;23.63;;
15818;SDS011;8010;53.986;12.106;2022-08-19T11:48:20;29.77;;;23.47;;
15818;SDS011;8010;53.986;12.106;2022-08-19T11:50:47;30.77;;;24.07;;
15818;SDS011;8010;53.986;12.106;2022-08-19T11:53:13;28.50;;;22.93;;
15818;SDS011;8010;53.986;12.106;2022-08-19T11:55:39;28.10;;;22.37;;
15818;SDS011;8010;53.986;12.106;2022-08-19T11:58:05;30.77;;;22.80;;
15818;SDS011;8010;53.986;12.106;2022-08-19T12:00:31;32.30;;;23.13;;
15818;SDS011;8010;53.986;12.106;2022-08-19T12:03:00;28.93;;;22.50;;
15818;SDS011;8010;53.986;12.106;2022-08-19T12:05:26;33.27;;;23.57;;
15818;SDS011;8010;53.986;12.106;2022-08-19T12:07:51;28.77;;;23.20;;
15818;SDS011;8010;53.986;12.106;2022-08-19T12:10:17;32.00;;;23.23;;
15818;SDS011;8010;53.986;12.106;2022-08-19T12:12:42;31.83;;;23.50;;
15818;SDS011;8010;53.986;12.106;2022-08-19T12:15:10;30.07;;;23.40;;
15818;SDS011;8010;53.986;12.106;2022-08-19T12:17:37;30.83;;;23.43;;
15818;SDS011;8010;53.986;12.106;2022-08-19T12:20:03;28.67;;;22.40;;
15818;SDS011;8010;53.986;12.106;2022-08-19T12:22:29;28.33;;;22.53;;
15818;SDS011;8010;53.986;12.106;2022-08-19T12:24:55;28.47;;;22.37;;
15818;SDS011;8010;53.986;12.106;2022-08-19T12:27:20;31.10;;;23.57;;
15818;SDS011;8010;53.986;12.106;2022-08-19T12:29:46;31.33;;;23.57;;
15818;SDS011;8010;53.986;12.106;2022-08-19T12:32:12;30.40;;;23.70;;
15818;SDS011;8010;53.986;12.106;2022-08-19T12:34:37;28.70;;;23.33;;
15818;SDS011;8010;53.986;12.106;2022-08-19T12:37:04;27.93;;;22.63;;
15818;SDS011;8010;53.986;12.106;2022-08-19T12:39:33;28.47;;;23.00;;
15818;SDS011;8010;53.986;12.106;2022-08-19T12:42:00;26.20;;;21.80;;
15818;SDS011;8010;53.986;12.106;2022-08-19T12:44:26;32.43;;;23.57;;
15818;SDS011;8010;53.986;12.106;2022-08-19T12:46:51;29.23;;;21.77;;
15818;SDS011;8010;53.986;12.106;2022-08-19T12:49:17;25.27;;;20.67;;
15818;SDS011;8010;53.986;12.106;2022-08-19T12:51:42;25.90;;;21.73;;
15818;SDS011;8010;53.986;12.106;2022-08-19T12:54:08;26.00;;;20.57;;
15818;SDS011;8010;53.986;12.106;2022-08-19T12:56:33;24.40;;;20.87;;
15818;SDS011;8010;53.986;12.106;2022-08-19T12:59:02;24.87;;;21.23;;
15818;SDS011;8010;53.986;12.106;2022-08-19T13:01:29;25.83;;;20.07;;
15818;SDS011;8010;53.986;12.106;2022-08-19T13:03:57;26.33;;;20.53;;
15818;SDS011;8010;53.986;12.106;2022-08-19T13:06:24;23.20;;;19.87;;
15818;SDS011;8010;53.986;12.106;2022-08-19T13:08:50;22.10;;;18.97;;
15818;SDS011;8010;53.986;12.106;2022-08-19T13:11:17;23.07;;;18.90;;
15818;SDS011;8010;53.986;12.106;2022-08-19T13:13:45;23.97;;;18.73;;
15818;SDS011;8010;53.986;12.106;2022-08-19T13:16:12;23.27;;;18.57;;
15818;SDS011;8010;53.986;12.106;2022-08-19T13:18:39;21.70;;;18.23;;
15818;SDS011;8010;53.986;12.106;2022-08-19T13:21:07;22.10;;;18.77;;
15818;SDS011;8010;53.986;12.106;2022-08-19T13:23:36;23.63;;;18.17;;
15818;SDS011;8010;53.986;12.106;2022-08-19T13:26:03;21.47;;;18.43;;
15818;SDS011;8010;53.986;12.106;2022-08-19T13:28:29;19.80;;;17.17;;
15818;SDS011;8010;53.986;12.106;2022-08-19T13:31:16;19.17;;;16.73;;
15818;SDS011;8010;53.986;12.106;2022-08-19T13:34:02;22.33;;;18.47;;
15818;SDS011;8010;53.986;12.106;2022-08-19T13:36:30;21.07;;;17.87;;
15818;SDS011;8010;53.986;12.106;2022-08-19T13:38:57;22.90;;;17.20;;
15818;SDS011;8010;53.986;12.106;2022-08-19T13:41:22;20.47;;;18.27;;
15818;SDS011;8010;53.986;12.106;2022-08-19T13:43:48;19.10;;;16.63;;
15818;SDS011;8010;53.986;12.106;2022-08-19T13:46:14;22.30;;;16.83;;
15818;SDS011;8010;53.986;12.106;2022-08-19T13:48:39;20.70;;;17.40;;
15818;SDS011;8010;53.986;12.106;2022-08-19T13:51:08;19.93;;;16.37;;
15818;SDS011;8010;53.986;12.106;2022-08-19T13:53:36;23.97;;;17.20;;
15818;SDS011;8010;53.986;12.106;2022-08-19T13:56:06;23.37;;;18.23;;
15818;SDS011;8010;53.986;12.106;2022-08-19T13:58:32;21.60;;;18.17;;
15818;SDS011;8010;53.986;12.106;2022-08-19T14:00:58;20.73;;;18.40;;
15818;SDS011;8010;53.986;12.106;2022-08-19T14:03:24;24.40;;;20.00;;
15818;SDS011;8010;53.986;12.106;2022-08-19T14:05:50;24.27;;;20.37;;
15818;SDS011;8010;53.986;12.106;2022-08-19T14:08:15;21.17;;;18.13;;
15818;SDS011;8010;53.986;12.106;2022-08-19T14:10:41;22.97;;;18.27;;
15818;SDS011;8010;53.986;12.106;2022-08-19T14:13:09;22.23;;;18.63;;
15818;SDS011;8010;53.986;12.106;2022-08-19T14:15:38;20.97;;;18.43;;
15818;SDS011;8010;53.986;12.106;2022-08-19T14:18:03;21.30;;;18.13;;
15818;SDS011;8010;53.986;12.106;2022-08-19T14:20:29;21.80;;;18.43;;
15818;SDS011;8010;53.986;12.106;2022-08-19T14:22:54;21.63;;;18.00;;
15818;SDS011;8010;53.986;12.106;2022-08-19T14:25:21;24.17;;;19.40;;
15818;SDS011;8010;53.986;12.106;2022-08-19T14:27:49;23.17;;;18.53;;
15818;SDS011;8010;53.986;12.106;2022-08-19T14:30:17;22.77;;;18.03;;
15818;SDS011;8010;53.986;12.106;2022-08-19T14:32:45;25.37;;;19.63;;
15818;SDS011;8010;53.986;12.106;2022-08-19T14:35:12;21.17;;;18.40;;